Time;durP1;ratioP1;P1;durP2;ratioP2;P2;SDS_P1;SDS_P2;PMS_P1;PMS_P2;Temp;Humidity;BMP_temperature;BMP_pressure;BME280_temperature;BME280_humidity;BME280_pressure;Samples;Min_cycle;Max_cycle;Signal;HPM_P1;HPM_P2
2022/03/03 00:02:11;;;;;;;16.10;9.50;;;-0.80;99.90;;;;;;5077621;28;20043;-62
2022/03/03 00:04:37;;;;;;;16.80;9.15;;;-0.90;99.90;;;;;;5098362;28;20088;-63
2022/03/03 00:07:03;;;;;;;19.67;8.13;;;-0.90;99.90;;;;;;5096448;28;20035;-62
2022/03/03 00:09:28;;;;;;;18.75;10.00;;;-0.90;99.90;;;;;;5097556;28;20161;-63
2022/03/03 00:11:54;;;;;;;18.38;8.43;;;-0.90;99.90;;;;;;5094671;28;20039;-63
2022/03/03 00:14:20;;;;;;;17.73;9.25;;;-1.00;99.90;;;;;;5098820;28;20506;-62
2022/03/03 00:16:45;;;;;;;15.65;8.77;;;-1.00;99.90;;;;;;5092526;28;20463;-63
2022/03/03 00:19:11;;;;;;;18.17;8.63;;;-1.00;99.90;;;;;;5066770;28;20051;-62
2022/03/03 00:21:37;;;;;;;15.00;8.30;;;-1.10;99.90;;;;;;5082502;28;20043;-63
2022/03/03 00:24:02;;;;;;;19.58;8.52;;;-1.10;99.90;;;;;;5084943;28;20047;-63
2022/03/03 00:26:28;;;;;;;20.25;10.10;;;-1.10;99.90;;;;;;5079886;28;20376;-63
2022/03/03 00:28:54;;;;;;;16.73;9.10;;;-1.10;99.90;;;;;;5085368;28;20193;-62
2022/03/03 00:31:20;;;;;;;15.93;7.75;;;-1.10;99.90;;;;;;5081298;28;20051;-62
2022/03/03 00:33:45;;;;;;;17.88;9.07;;;-1.10;99.90;;;;;;5081545;28;20032;-63
2022/03/03 00:36:11;;;;;;;19.75;9.73;;;-1.10;99.90;;;;;;5081529;28;20048;-63
2022/03/03 00:38:37;;;;;;;16.95;8.85;;;-1.20;99.90;;;;;;5080979;28;20131;-63
2022/03/03 00:41:03;;;;;;;17.85;9.30;;;-1.20;99.90;;;;;;5082074;28;20162;-64
2022/03/03 00:43:29;;;;;;;17.60;9.05;;;-1.20;99.90;;;;;;5083583;28;20127;-63
2022/03/03 00:45:54;;;;;;;17.60;8.90;;;-1.20;99.90;;;;;;5081879;28;20043;-63
2022/03/03 00:48:20;;;;;;;15.63;8.55;;;-1.20;99.90;;;;;;5079960;28;20039;-63
2022/03/03 00:50:46;;;;;;;15.48;8.80;;;-1.20;99.90;;;;;;5082639;28;20028;-62
2022/03/03 00:53:11;;;;;;;21.52;10.85;;;-1.20;99.90;;;;;;5082121;28;20863;-63
2022/03/03 00:55:37;;;;;;;17.02;9.57;;;-1.20;99.90;;;;;;5082759;28;20047;-63
2022/03/03 00:58:03;;;;;;;17.25;9.15;;;-1.30;99.90;;;;;;5081707;28;20028;-63
2022/03/03 01:00:29;;;;;;;18.17;9.98;;;-1.30;99.90;;;;;;5084223;28;20047;-63
2022/03/03 01:02:55;;;;;;;19.83;9.55;;;-1.30;99.90;;;;;;5078998;28;20032;-64
2022/03/03 01:05:21;;;;;;;15.52;8.27;;;-1.30;99.90;;;;;;5083260;28;20090;-63
2022/03/03 01:07:47;;;;;;;14.77;8.80;;;-1.40;99.90;;;;;;5081448;28;20036;-63
2022/03/03 01:10:13;;;;;;;19.88;9.80;;;-1.30;99.90;;;;;;5083079;28;20105;-63
2022/03/03 01:12:39;;;;;;;18.70;9.30;;;-1.40;99.90;;;;;;5081558;28;20039;-63
2022/03/03 01:15:07;;;;;;;17.15;8.48;;;-1.40;99.90;;;;;;5079217;28;20032;-64
2022/03/03 01:17:32;;;;;;;21.13;10.27;;;-1.40;99.90;;;;;;5081033;28;20040;-63
2022/03/03 01:19:58;;;;;;;19.67;10.57;;;-1.40;99.90;;;;;;5083202;28;20074;-64
2022/03/03 01:22:24;;;;;;;18.08;9.30;;;-1.40;99.90;;;;;;5081802;28;20097;-63
2022/03/03 01:24:50;;;;;;;16.85;9.50;;;-1.40;99.90;;;;;;5083038;28;20198;-62
2022/03/03 01:27:16;;;;;;;20.60;9.43;;;-1.40;99.90;;;;;;5078501;28;20503;-64
2022/03/03 01:29:41;;;;;;;20.10;10.05;;;-1.50;99.90;;;;;;5084161;28;20071;-63
2022/03/03 01:32:08;;;;;;;22.58;10.82;;;-1.50;99.90;;;;;;5081886;28;20036;-62
2022/03/03 01:34:34;;;;;;;20.80;11.18;;;-1.40;99.90;;;;;;5083363;28;20032;-62
2022/03/03 01:37:00;;;;;;;24.50;11.27;;;-1.40;99.90;;;;;;5083220;28;20040;-63
2022/03/03 01:39:25;;;;;;;23.63;10.13;;;-1.40;99.90;;;;;;5083299;28;20061;-63
2022/03/03 01:41:52;;;;;;;19.75;9.45;;;-1.50;99.90;;;;;;5082923;28;20494;-63
2022/03/03 01:44:17;;;;;;;17.00;8.88;;;-1.50;99.90;;;;;;5083121;28;20089;-64
2022/03/03 01:47:16;;;;;;;17.83;9.02;;;-1.50;99.90;;;;;;5082028;28;20044;-63
2022/03/03 01:49:42;;;;;;;17.15;9.35;;;-1.50;99.90;;;;;;5079411;28;20476;-62
2022/03/03 01:52:08;;;;;;;17.85;9.40;;;-1.50;99.90;;;;;;5080457;28;20126;-61
2022/03/03 01:54:33;;;;;;;17.48;8.38;;;-1.50;99.90;;;;;;5082468;28;20129;-64
2022/03/03 01:56:59;;;;;;;28.75;9.48;;;-1.50;99.90;;;;;;5080386;28;20043;-63
2022/03/03 01:59:25;;;;;;;18.00;8.73;;;-1.40;99.90;;;;;;5083946;28;20039;-64
2022/03/03 02:01:51;;;;;;;20.02;9.68;;;-1.40;99.90;;;;;;5092201;28;20039;-63
2022/03/03 02:04:17;;;;;;;14.70;8.55;;;-1.40;99.90;;;;;;5102093;28;20089;-61
2022/03/03 02:06:42;;;;;;;18.00;9.57;;;-1.40;99.90;;;;;;5100254;28;20043;-62
2022/03/03 02:09:08;;;;;;;22.33;9.65;;;-1.40;99.90;;;;;;5102865;28;20063;-62
2022/03/03 02:11:35;;;;;;;18.73;9.00;;;-1.40;99.90;;;;;;5101274;28;20036;-62
2022/03/03 02:14:04;;;;;;;15.10;8.55;;;-1.50;99.90;;;;;;5103062;28;20508;-63
2022/03/03 02:16:30;;;;;;;16.33;8.68;;;-1.50;99.90;;;;;;5101101;28;20044;-63
2022/03/03 02:18:56;;;;;;;22.33;10.50;;;-1.50;99.90;;;;;;5104764;28;20753;-62
2022/03/03 02:21:22;;;;;;;19.73;9.45;;;-1.50;99.90;;;;;;5100062;28;20043;-63
2022/03/03 02:23:48;;;;;;;15.68;8.30;;;-1.50;99.90;;;;;;5083861;28;20035;-64
2022/03/03 02:26:20;;;;;;;17.08;8.85;;;-1.50;99.90;;;;;;5101738;28;20043;-62
2022/03/03 02:28:47;;;;;;;20.42;8.95;;;-1.60;99.90;;;;;;5099538;28;20043;-60
2022/03/03 02:31:12;;;;;;;18.17;9.25;;;-1.60;99.90;;;;;;5100303;27;20032;-63
2022/03/03 02:33:38;;;;;;;19.30;10.23;;;-1.60;99.90;;;;;;5100637;28;20607;-63
2022/03/03 02:36:17;;;;;;;20.73;11.20;;;-1.60;99.90;;;;;;5102242;28;20097;-62
2022/03/03 02:38:44;;;;;;;18.90;9.73;;;-1.60;99.90;;;;;;5103075;28;20040;-62
2022/03/03 02:41:09;;;;;;;18.48;9.88;;;-1.60;99.90;;;;;;5101391;28;20044;-62
2022/03/03 02:43:35;;;;;;;15.90;8.82;;;-1.60;99.90;;;;;;5100515;28;20145;-63
2022/03/03 02:46:01;;;;;;;22.85;8.10;;;-1.60;99.90;;;;;;5102707;28;20092;-64
2022/03/03 02:48:27;;;;;;;18.73;9.13;;;-1.60;99.90;;;;;;5100955;28;20062;-63
2022/03/03 02:50:53;;;;;;;15.85;8.95;;;-1.50;99.90;;;;;;5101368;28;20499;-62
2022/03/03 02:53:18;;;;;;;22.27;9.95;;;-1.50;99.90;;;;;;5100359;28;20050;-63
2022/03/03 02:55:44;;;;;;;22.05;9.80;;;-1.50;99.90;;;;;;5101910;28;20035;-62
2022/03/03 02:58:11;;;;;;;21.13;10.35;;;-1.50;99.90;;;;;;5099763;28;20031;-62
2022/03/03 03:00:42;;;;;;;15.52;8.52;;;-1.50;99.90;;;;;;5098285;27;20046;-63
2022/03/03 03:03:09;;;;;;;17.75;9.10;;;-1.50;99.90;;;;;;5099580;28;20043;-63
2022/03/03 03:05:35;;;;;;;17.95;8.45;;;-1.50;99.90;;;;;;5083043;28;20047;-62
2022/03/03 03:08:01;;;;;;;17.77;9.35;;;-1.50;99.90;;;;;;5100143;28;20035;-63
2022/03/03 03:10:27;;;;;;;21.58;9.50;;;-1.50;99.90;;;;;;5082907;28;20042;-62
2022/03/03 03:12:52;;;;;;;17.98;8.63;;;-1.60;99.90;;;;;;5100017;28;20032;-63
2022/03/03 03:15:19;;;;;;;19.10;9.63;;;-1.60;99.90;;;;;;5101216;28;20118;-61
2022/03/03 03:17:45;;;;;;;19.08;9.15;;;-1.70;99.90;;;;;;5100392;28;20038;-62
2022/03/03 03:20:11;;;;;;;23.52;10.07;;;-1.70;99.90;;;;;;5101481;28;20047;-63
2022/03/03 03:22:37;;;;;;;21.05;9.40;;;-1.70;99.90;;;;;;5096722;28;20503;-63
2022/03/03 03:25:07;;;;;;;16.70;8.75;;;-1.70;99.90;;;;;;5100930;28;20522;-61
2022/03/03 03:27:33;;;;;;;15.55;8.50;;;-1.80;99.90;;;;;;5099275;28;20654;-62
2022/03/03 03:29:59;;;;;;;16.83;9.07;;;-1.80;99.90;;;;;;5102146;28;20579;-62
2022/03/03 03:32:25;;;;;;;17.25;9.15;;;-1.80;99.90;;;;;;5098824;27;20539;-62
2022/03/03 03:34:51;;;;;;;19.90;9.10;;;-1.80;99.90;;;;;;5100718;28;20040;-62
2022/03/03 03:37:16;;;;;;;20.63;9.55;;;-1.80;99.90;;;;;;5099736;28;20066;-61
2022/03/03 03:39:42;;;;;;;20.40;9.15;;;-1.80;99.90;;;;;;5109063;28;20043;-64
2022/03/03 03:42:08;;;;;;;17.90;9.18;;;-1.80;99.90;;;;;;5082057;28;20503;-62
2022/03/03 03:44:35;;;;;;;21.50;8.88;;;-1.80;99.90;;;;;;5101489;28;20035;-61
2022/03/03 03:47:01;;;;;;;15.90;8.45;;;-1.90;99.90;;;;;;5099764;28;20035;-63
2022/03/03 03:49:27;;;;;;;19.60;9.70;;;-1.80;99.90;;;;;;5101872;28;20142;-62
2022/03/03 03:51:53;;;;;;;19.42;9.20;;;-1.80;99.90;;;;;;5099092;28;20039;-63
2022/03/03 03:54:19;;;;;;;16.17;8.82;;;-1.80;99.90;;;;;;5105110;28;20032;-62
2022/03/03 03:56:44;;;;;;;18.85;9.02;;;-1.80;99.90;;;;;;5103793;28;20131;-62
2022/03/03 03:59:10;;;;;;;21.92;9.52;;;-1.80;99.90;;;;;;5106814;28;20568;-62
2022/03/03 04:01:36;;;;;;;18.05;9.55;;;-1.80;99.90;;;;;;5103198;28;20040;-62
2022/03/03 04:04:02;;;;;;;22.58;10.32;;;-1.90;99.90;;;;;;5104207;28;20523;-61
2022/03/03 04:06:28;;;;;;;16.80;8.88;;;-1.90;99.90;;;;;;5104065;28;20040;-61
2022/03/03 04:08:54;;;;;;;15.35;9.23;;;-1.80;99.90;;;;;;5105290;27;20032;-61
2022/03/03 04:11:19;;;;;;;18.33;9.43;;;-1.80;99.90;;;;;;5111829;27;20057;-62
2022/03/03 04:13:45;;;;;;;16.25;9.50;;;-1.80;99.90;;;;;;5085591;28;20040;-63
2022/03/03 04:16:11;;;;;;;27.77;11.00;;;-1.80;99.90;;;;;;5104182;28;20047;-61
2022/03/03 04:18:37;;;;;;;21.13;10.85;;;-1.80;99.90;;;;;;5103811;28;20027;-61
2022/03/03 04:21:03;;;;;;;16.77;9.30;;;-1.70;99.90;;;;;;5086369;28;20072;-63
2022/03/03 04:23:29;;;;;;;21.08;10.00;;;-1.80;99.90;;;;;;5102218;28;20051;-62
2022/03/03 04:25:55;;;;;;;19.40;9.20;;;-1.80;99.90;;;;;;5085777;28;20043;-62
2022/03/03 04:28:20;;;;;;;22.50;9.90;;;-1.80;99.90;;;;;;5103574;28;20332;-61
2022/03/03 04:30:47;;;;;;;24.48;11.65;;;-1.80;99.90;;;;;;5105071;28;20113;-61
2022/03/03 04:33:13;;;;;;;24.85;12.32;;;-1.80;99.90;;;;;;5101926;28;20054;-63
2022/03/03 04:35:39;;;;;;;29.30;12.82;;;-1.80;99.90;;;;;;5104467;28;20082;-62
2022/03/03 04:38:05;;;;;;;21.48;10.55;;;-1.80;99.90;;;;;;5102346;28;20097;-61
2022/03/03 04:40:30;;;;;;;18.80;9.30;;;-1.90;99.90;;;;;;5103744;28;20039;-62
2022/03/03 04:42:56;;;;;;;22.13;10.52;;;-1.90;99.90;;;;;;5084476;28;20066;-62
2022/03/03 04:45:23;;;;;;;18.75;8.70;;;-1.90;99.90;;;;;;5104278;28;20082;-62
2022/03/03 04:47:49;;;;;;;20.48;10.07;;;-1.90;99.90;;;;;;5101864;28;20039;-63
2022/03/03 04:50:14;;;;;;;20.42;9.43;;;-1.90;99.90;;;;;;5089404;27;20042;-60
2022/03/03 04:52:40;;;;;;;21.45;10.20;;;-1.90;99.90;;;;;;5105438;27;20040;-62
2022/03/03 04:55:07;;;;;;;20.45;10.82;;;-1.90;99.90;;;;;;5103932;28;20043;-63
2022/03/03 04:57:32;;;;;;;20.83;10.63;;;-2.00;99.90;;;;;;5099451;28;20043;-62
2022/03/03 04:59:58;;;;;;;24.33;11.52;;;-2.00;99.90;;;;;;5105648;28;20112;-63
2022/03/03 05:02:24;;;;;;;34.33;14.32;;;-1.90;99.90;;;;;;5095320;28;20081;-63
2022/03/03 05:04:50;;;;;;;28.15;12.73;;;-2.00;99.90;;;;;;5103510;28;20043;-63
2022/03/03 05:07:15;;;;;;;24.10;11.02;;;-1.90;99.90;;;;;;5099665;28;20813;-62
2022/03/03 05:09:41;;;;;;;18.80;9.80;;;-2.00;99.90;;;;;;5105860;28;20450;-63
2022/03/03 05:12:08;;;;;;;18.88;8.65;;;-2.00;99.90;;;;;;5100195;28;20032;-61
2022/03/03 05:14:33;;;;;;;22.80;9.30;;;-2.00;99.90;;;;;;5104538;28;20499;-62
2022/03/03 05:17:00;;;;;;;19.48;9.27;;;-2.00;99.90;;;;;;5098746;28;20066;-62
2022/03/03 05:19:25;;;;;;;19.30;9.02;;;-1.90;99.90;;;;;;5104593;28;20031;-61
2022/03/03 05:21:51;;;;;;;17.20;9.27;;;-1.90;99.90;;;;;;5100167;28;20036;-62
2022/03/03 05:24:17;;;;;;;20.15;9.65;;;-1.90;99.90;;;;;;5103928;28;20034;-63
2022/03/03 05:26:43;;;;;;;20.55;8.75;;;-2.00;99.90;;;;;;5100670;28;20048;-62
2022/03/03 05:29:09;;;;;;;18.85;7.85;;;-2.00;99.90;;;;;;5103844;28;20050;-61
2022/03/03 05:31:34;;;;;;;18.45;8.65;;;-2.00;99.90;;;;;;5102382;27;20181;-60
2022/03/03 05:34:03;;;;;;;21.77;9.25;;;-1.90;99.90;;;;;;5085383;28;20032;-62
2022/03/03 05:36:30;;;;;;;18.13;9.02;;;-1.90;99.90;;;;;;5102645;28;20044;-63
2022/03/03 05:38:57;;;;;;;17.75;8.05;;;-2.00;99.90;;;;;;5102296;28;20039;-61
2022/03/03 05:41:23;;;;;;;21.13;8.38;;;-2.00;99.90;;;;;;5101982;28;20069;-62
2022/03/03 05:43:50;;;;;;;15.77;8.35;;;-2.00;99.90;;;;;;5103155;27;20035;-61
2022/03/03 05:46:15;;;;;;;23.08;10.77;;;-2.00;99.90;;;;;;5099724;27;20043;-62
2022/03/03 05:48:41;;;;;;;22.85;10.32;;;-2.00;99.90;;;;;;5102332;28;20039;-59
2022/03/03 05:51:10;;;;;;;24.17;9.43;;;-2.00;99.90;;;;;;5103552;28;20704;-62
2022/03/03 05:53:35;;;;;;;33.58;14.45;;;-2.00;99.90;;;;;;5102141;28;20499;-62
2022/03/03 05:56:07;;;;;;;25.45;10.70;;;-2.10;99.90;;;;;;5103085;28;20054;-62
2022/03/03 05:58:46;;;;;;;30.52;10.82;;;-2.10;99.90;;;;;;5097989;28;20047;-62
2022/03/03 06:01:14;;;;;;;18.98;8.43;;;-2.10;99.90;;;;;;5101097;28;20593;-60
2022/03/03 06:03:40;;;;;;;15.70;8.10;;;-2.10;99.90;;;;;;5097713;28;20031;-62
2022/03/03 06:06:18;;;;;;;21.65;9.88;;;-2.20;99.90;;;;;;5101024;28;20039;-62
2022/03/03 06:09:07;;;;;;;20.92;8.88;;;-2.20;99.90;;;;;;5100018;28;20047;-62
2022/03/03 06:11:41;;;;;;;28.05;8.07;;;-2.20;99.90;;;;;;5085851;28;20035;-63
2022/03/03 06:14:09;;;;;;;20.23;8.38;;;-2.20;99.90;;;;;;5101957;28;20123;-62
2022/03/03 06:16:35;;;;;;;30.90;9.77;;;-2.10;99.90;;;;;;5081468;28;20650;-63
2022/03/03 06:19:02;;;;;;;20.52;9.85;;;-2.20;99.90;;;;;;5104107;28;20044;-61
2022/03/03 06:21:28;;;;;;;24.27;9.77;;;-2.20;99.90;;;;;;5101018;28;20555;-62
2022/03/03 06:23:54;;;;;;;21.38;9.38;;;-2.20;99.90;;;;;;5100130;28;20031;-63
2022/03/03 06:26:20;;;;;;;24.20;10.95;;;-2.20;99.90;;;;;;5097644;28;20035;-61
2022/03/03 06:28:46;;;;;;;25.70;10.90;;;-2.20;99.90;;;;;;5101251;28;20028;-65
2022/03/03 06:31:13;;;;;;;24.13;10.02;;;-2.20;99.90;;;;;;5100051;28;20038;-62
2022/03/03 06:33:40;;;;;;;24.73;10.50;;;-2.20;99.90;;;;;;5100381;28;20122;-64
2022/03/03 06:36:06;;;;;;;22.17;10.13;;;-2.20;99.90;;;;;;5103941;28;20048;-64
2022/03/03 06:38:32;;;;;;;19.67;9.45;;;-2.20;99.90;;;;;;5099259;28;20506;-62
2022/03/03 06:40:58;;;;;;;19.27;8.60;;;-2.10;99.90;;;;;;5098043;27;20027;-63
2022/03/03 06:43:24;;;;;;;20.33;8.68;;;-2.10;99.90;;;;;;5095424;27;20042;-63
2022/03/03 06:45:51;;;;;;;20.98;9.98;;;-2.00;99.90;;;;;;5098357;28;20039;-64
2022/03/03 06:48:17;;;;;;;19.27;9.38;;;-2.00;99.90;;;;;;5102276;28;20035;-63
2022/03/03 06:50:43;;;;;;;20.42;8.82;;;-2.00;99.90;;;;;;5102961;28;20034;-66
2022/03/03 06:53:10;;;;;;;17.02;9.30;;;-1.90;99.90;;;;;;5099957;28;20317;-64
2022/03/03 06:55:37;;;;;;;19.45;9.10;;;-1.70;99.90;;;;;;5103133;28;20483;-65
2022/03/03 06:58:03;;;;;;;20.15;10.05;;;-1.40;99.90;;;;;;5099244;28;20184;-64
2022/03/03 07:00:33;;;;;;;16.60;8.65;;;-0.90;99.90;;;;;;5100263;28;21133;-64
2022/03/03 07:03:02;;;;;;;17.38;8.85;;;-0.70;99.90;;;;;;5097745;28;20036;-62
2022/03/03 07:05:29;;;;;;;16.20;9.00;;;-0.10;99.90;;;;;;5102177;28;20035;-62
2022/03/03 07:07:54;;;;;;;16.75;10.07;;;0.20;99.90;;;;;;5099510;28;20093;-63
2022/03/03 07:10:25;;;;;;;16.80;9.77;;;0.80;99.90;;;;;;5103670;28;20659;-63
2022/03/03 07:12:56;;;;;;;30.73;16.83;;;1.10;99.90;;;;;;5090267;28;20480;-63
2022/03/03 07:15:24;;;;;;;25.63;14.23;;;1.00;99.90;;;;;;5098316;28;20458;-62
2022/03/03 07:17:53;;;;;;;25.63;13.90;;;1.10;99.90;;;;;;5099603;28;20538;-63
2022/03/03 07:20:44;;;;;;;19.23;10.73;;;1.20;99.90;;;;;;5094602;28;20048;-63
2022/03/03 07:23:23;;;;;;;21.67;10.27;;;1.30;99.90;;;;;;5097272;28;20044;-61
2022/03/03 07:25:54;;;;;;;16.63;8.93;;;1.50;99.90;;;;;;5102022;28;20795;-63
2022/03/03 07:28:21;;;;;;;21.58;10.15;;;1.60;99.90;;;;;;5099228;28;20063;-62
2022/03/03 07:30:49;;;;;;;16.10;8.70;;;1.80;99.90;;;;;;5096504;28;20050;-62
2022/03/03 07:33:43;;;;;;;16.27;8.68;;;2.20;99.90;;;;;;5100421;28;20046;-63
2022/03/03 07:36:12;;;;;;;19.95;8.25;;;2.40;99.90;;;;;;5104694;27;20725;-62
2022/03/03 07:38:40;;;;;;;19.67;8.75;;;2.40;99.90;;;;;;5101487;28;20036;-60
2022/03/03 07:41:09;;;;;;;14.93;7.78;;;2.50;99.90;;;;;;5105168;27;20054;-61
2022/03/03 07:43:34;;;;;;;15.90;7.80;;;2.80;99.90;;;;;;5098237;27;20032;-63
2022/03/03 07:46:01;;;;;;;20.52;8.52;;;3.00;99.90;;;;;;5100467;27;20070;-62
2022/03/03 07:48:27;;;;;;;16.77;9.50;;;2.80;99.90;;;;;;5102263;27;20589;-63
2022/03/03 07:50:52;;;;;;;17.38;9.48;;;2.80;99.90;;;;;;5105408;28;20736;-62
2022/03/03 07:53:18;;;;;;;15.98;9.23;;;2.80;99.90;;;;;;5099999;28;20063;-62
2022/03/03 07:55:45;;;;;;;15.60;8.00;;;2.80;99.90;;;;;;5106359;28;20066;-63
2022/03/03 07:58:17;;;;;;;22.17;9.73;;;2.80;99.90;;;;;;5096394;28;20067;-63
2022/03/03 08:00:49;;;;;;;27.10;9.77;;;2.90;99.90;;;;;;5106184;28;20035;-62
2022/03/03 08:03:19;;;;;;;19.17;9.38;;;3.20;99.90;;;;;;5099965;28;20058;-63
2022/03/03 08:05:48;;;;;;;14.57;8.45;;;3.50;99.80;;;;;;5104963;28;20044;-63
2022/03/03 08:08:16;;;;;;;14.68;8.32;;;4.10;99.20;;;;;;5105282;28;20052;-62
2022/03/03 08:10:43;;;;;;;12.80;7.13;;;4.70;97.90;;;;;;5107570;28;20778;-62
2022/03/03 08:13:17;;;;;;;17.50;8.27;;;5.10;96.60;;;;;;5099980;28;20502;-66
2022/03/03 08:15:44;;;;;;;15.10;8.23;;;5.10;95.70;;;;;;5104931;28;20031;-61
2022/03/03 08:18:11;;;;;;;14.48;8.07;;;5.20;95.90;;;;;;5102764;28;20096;-63
2022/03/03 08:20:38;;;;;;;17.02;8.60;;;5.30;95.60;;;;;;5106686;28;20031;-62
2022/03/03 08:23:06;;;;;;;18.85;9.63;;;5.70;95.10;;;;;;5102545;28;20040;-62
2022/03/03 08:25:33;;;;;;;16.63;9.65;;;5.90;94.10;;;;;;5105878;28;20067;-61
2022/03/03 08:27:59;;;;;;;18.98;9.93;;;5.60;94.00;;;;;;5105500;28;20031;-63
2022/03/03 08:30:25;;;;;;;21.63;10.75;;;5.50;91.50;;;;;;5105810;28;20043;-61
2022/03/03 08:33:16;;;;;;;16.17;10.23;;;5.00;92.70;;;;;;5102755;28;20088;-61
2022/03/03 08:35:48;;;;;;;20.67;10.63;;;4.50;94.70;;;;;;5099021;28;20039;-62
2022/03/03 08:38:21;;;;;;;18.65;10.13;;;4.10;95.60;;;;;;5103487;28;20035;-63
2022/03/03 08:40:48;;;;;;;17.92;10.68;;;3.90;94.30;;;;;;5106224;28;20508;-62
2022/03/03 08:43:16;;;;;;;26.70;11.68;;;3.80;94.30;;;;;;5102515;28;20782;-61
2022/03/03 08:45:42;;;;;;;29.25;13.82;;;3.80;92.70;;;;;;5105178;28;20469;-62
2022/03/03 08:48:12;;;;;;;18.77;11.18;;;3.80;96.40;;;;;;5102395;28;20032;-62
2022/03/03 08:50:39;;;;;;;20.23;10.57;;;3.90;94.00;;;;;;5095130;28;20162;-62
2022/03/03 08:53:07;;;;;;;24.67;12.35;;;4.00;97.90;;;;;;5101714;28;20044;-61
2022/03/03 08:55:34;;;;;;;22.95;11.35;;;4.00;95.70;;;;;;5101939;28;20165;-62
2022/03/03 08:58:00;;;;;;;25.63;12.63;;;4.00;94.00;;;;;;5098488;28;20059;-63
2022/03/03 09:00:27;;;;;;;23.88;12.32;;;4.10;94.50;;;;;;5099611;28;20032;-62
2022/03/03 09:02:53;;;;;;;21.50;11.65;;;4.10;94.40;;;;;;5101673;28;20042;-63
2022/03/03 09:05:20;;;;;;;23.63;11.43;;;4.20;94.20;;;;;;5102459;28;20031;-62
2022/03/03 09:07:46;;;;;;;22.75;12.38;;;4.20;93.50;;;;;;5103714;28;20036;-62
2022/03/03 09:10:12;;;;;;;19.80;11.27;;;4.20;93.20;;;;;;5103126;28;20078;-62
2022/03/03 09:12:38;;;;;;;20.25;11.02;;;4.20;93.00;;;;;;5104585;28;20040;-62
2022/03/03 09:15:05;;;;;;;18.98;11.23;;;4.30;93.00;;;;;;5101914;28;20043;-63
2022/03/03 09:17:31;;;;;;;17.08;10.50;;;4.50;92.60;;;;;;5106185;28;20067;-62
2022/03/03 09:19:57;;;;;;;20.92;10.15;;;4.50;91.90;;;;;;5104765;28;20117;-63
2022/03/03 09:22:23;;;;;;;22.15;11.30;;;4.60;91.50;;;;;;5101804;28;20032;-62
2022/03/03 09:24:48;;;;;;;27.65;11.00;;;4.70;90.80;;;;;;5101574;28;20046;-63
2022/03/03 09:27:14;;;;;;;;;;;4.80;90.60;;;;;;5102816;28;20036;-62
2022/03/03 09:29:39;;;;;;;18.05;10.07;;;4.90;90.30;;;;;;5102235;28;19916;-63
2022/03/03 09:32:06;;;;;;;21.33;11.02;;;4.90;87.10;;;;;;5105048;27;20027;-62
2022/03/03 09:34:32;;;;;;;21.60;11.25;;;4.90;86.80;;;;;;5103920;28;20035;-62
2022/03/03 09:36:58;;;;;;;20.25;11.23;;;5.00;86.60;;;;;;5105810;28;20559;-62
2022/03/03 09:39:24;;;;;;;15.73;9.52;;;5.10;88.60;;;;;;5100104;28;20037;-63
2022/03/03 09:41:52;;;;;;;19.55;11.25;;;5.20;87.60;;;;;;5105661;28;20072;-62
2022/03/03 09:44:22;;;;;;;16.83;10.30;;;5.20;85.10;;;;;;5098585;28;20075;-63
2022/03/03 09:46:48;;;;;;;19.75;10.30;;;5.30;85.50;;;;;;5104788;28;20113;-63
2022/03/03 09:49:14;;;;;;;24.15;11.23;;;5.50;89.10;;;;;;5099166;28;20067;-62
2022/03/03 09:51:39;;;;;;;;;;;5.60;84.70;;;;;;5104902;28;20103;-62
2022/03/03 09:54:06;;;;;;;17.83;9.98;;;5.50;84.40;;;;;;5098327;28;19943;-62
2022/03/03 09:56:32;;;;;;;18.42;10.90;;;5.50;85.00;;;;;;5105274;28;20684;-63
2022/03/03 09:58:57;;;;;;;19.45;10.52;;;5.50;84.30;;;;;;5100044;28;20116;-63
2022/03/03 10:01:30;;;;;;;16.67;10.55;;;5.40;82.40;;;;;;5103814;28;20035;-62
2022/03/03 10:04:18;;;;;;;21.48;11.38;;;5.40;84.00;;;;;;5097741;28;20078;-62
2022/03/03 10:06:43;;;;;;;21.23;10.93;;;5.20;80.10;;;;;;5108610;27;20042;-62
2022/03/03 10:09:11;;;;;;;21.60;10.93;;;5.40;81.70;;;;;;5103923;28;20400;-62
2022/03/03 10:11:58;;;;;;;21.35;11.15;;;5.40;81.90;;;;;;5086864;28;20072;-62
2022/03/03 10:14:33;;;;;;;20.83;10.95;;;5.50;80.50;;;;;;5089945;28;20234;-63
2022/03/03 10:16:59;;;;;;;17.52;9.80;;;5.50;77.80;;;;;;5105161;28;20051;-63
2022/03/03 10:19:25;;;;;;;23.25;10.57;;;5.40;78.20;;;;;;5098150;28;20044;-64
2022/03/03 10:21:51;;;;;;;19.67;10.25;;;5.50;77.50;;;;;;5104395;28;20031;-62
2022/03/03 10:24:24;;;;;;;19.67;10.98;;;5.50;78.90;;;;;;5097243;28;20028;-63
2022/03/03 10:27:01;;;;;;;18.05;10.45;;;5.70;77.40;;;;;;5104961;28;20047;-63
2022/03/03 10:29:28;;;;;;;20.45;10.60;;;5.60;75.00;;;;;;5098450;28;20031;-64
2022/03/03 10:31:56;;;;;;;20.23;11.10;;;5.70;79.70;;;;;;5094820;27;20072;-63
2022/03/03 10:34:26;;;;;;;23.42;10.30;;;5.60;71.40;;;;;;5098379;28;20554;-63
2022/03/03 10:37:07;;;;;;;16.45;9.88;;;5.60;70.10;;;;;;5103769;28;20036;-63
2022/03/03 10:39:38;;;;;;;16.60;9.68;;;5.50;70.90;;;;;;5098684;28;20585;-63
2022/03/03 10:42:19;;;;;;;15.60;9.25;;;5.70;73.30;;;;;;5104101;28;20036;-63
2022/03/03 10:44:46;;;;;;;16.40;9.10;;;6.10;72.40;;;;;;5085103;28;20516;-63
2022/03/03 10:47:17;;;;;;;15.57;9.15;;;6.00;69.90;;;;;;5101369;28;20789;-63
2022/03/03 10:49:46;;;;;;;18.15;9.30;;;6.00;70.80;;;;;;5100013;28;20027;-63
2022/03/03 10:52:15;;;;;;;19.83;9.65;;;6.10;67.70;;;;;;5102110;28;20120;-63
2022/03/03 10:55:15;;;;;;;17.80;9.27;;;6.10;68.80;;;;;;5093614;28;20710;-64
2022/03/03 10:57:40;;;;;;;15.15;9.18;;;6.20;71.10;;;;;;5101929;28;20579;-63
2022/03/03 11:00:14;;;;;;;;;;;6.40;67.90;;;;;;5095915;28;20112;-64
2022/03/03 11:02:43;;;;;;;14.80;9.25;;;6.50;66.90;;;;;;5102353;28;19915;-64
2022/03/03 11:05:10;;;;;;;17.42;10.07;;;6.60;69.50;;;;;;5096811;28;20732;-63
2022/03/03 11:07:39;;;;;;;16.02;9.00;;;6.60;70.20;;;;;;5103790;28;20051;-63
2022/03/03 11:10:06;;;;;;;14.95;9.35;;;6.70;68.10;;;;;;5097533;28;20053;-63
2022/03/03 11:12:32;;;;;;;19.42;10.48;;;6.90;71.90;;;;;;5098909;28;20055;-64
2022/03/03 11:14:59;;;;;;;14.63;9.57;;;7.00;68.50;;;;;;5099092;28;20462;-63
2022/03/03 11:17:26;;;;;;;14.07;8.98;;;7.10;71.10;;;;;;5103313;28;20063;-63
2022/03/03 11:19:52;;;;;;;13.25;8.70;;;7.30;71.80;;;;;;5095497;28;20476;-63
2022/03/03 11:22:19;;;;;;;16.65;8.82;;;7.30;70.50;;;;;;5103346;28;20042;-62
2022/03/03 11:24:45;;;;;;;15.35;8.80;;;7.40;67.40;;;;;;5099300;28;20092;-64
2022/03/03 11:27:11;;;;;;;14.80;8.43;;;7.40;66.00;;;;;;5102774;28;20044;-62
2022/03/03 11:29:38;;;;;;;;;;;7.40;66.20;;;;;;5097109;28;20024;-64
2022/03/03 11:32:15;;;;;;;20.48;8.45;;;7.50;66.50;;;;;;5099308;27;19976;-64
2022/03/03 11:34:43;;;;;;;14.10;7.75;;;7.50;65.60;;;;;;5091548;28;20332;-64
2022/03/03 11:37:23;;;;;;;14.27;8.00;;;7.70;62.70;;;;;;5114968;28;20057;-64
2022/03/03 11:39:58;;;;;;;14.60;8.35;;;7.70;59.00;;;;;;5109682;27;20062;-61
2022/03/03 11:42:29;;;;;;;12.60;7.28;;;7.80;58.70;;;;;;5096343;28;20505;-65
2022/03/03 11:45:07;;;;;;;13.77;8.02;;;7.60;56.50;;;;;;5095693;28;20714;-62
2022/03/03 11:47:38;;;;;;;13.50;7.53;;;7.60;61.10;;;;;;5102419;28;20552;-63
2022/03/03 11:50:04;;;;;;;15.02;7.63;;;7.70;58.10;;;;;;5097090;28;20036;-62
2022/03/03 11:52:29;;;;;;;;;;;7.70;59.50;;;;;;5103544;28;20982;-63
2022/03/03 11:54:59;;;;;;;15.07;8.10;;;7.80;58.20;;;;;;5096241;28;20495;-63
2022/03/03 11:57:29;;;;;;;11.93;6.80;;;7.60;57.60;;;;;;5103323;28;20040;-62
2022/03/03 12:00:01;;;;;;;9.52;5.82;;;7.60;60.00;;;;;;5089816;28;20054;-63
2022/03/03 12:02:30;;;;;;;12.27;6.65;;;7.50;56.90;;;;;;5102735;28;20411;-64
2022/03/03 12:05:35;;;;;;;14.40;7.32;;;7.50;61.20;;;;;;5095474;28;20176;-63
2022/03/03 12:08:05;;;;;;;12.10;6.88;;;7.60;60.30;;;;;;5043111;28;20048;-63
2022/03/03 12:10:32;;;;;;;13.18;7.60;;;7.50;60.10;;;;;;5091206;28;20045;-62
2022/03/03 12:13:33;;;;;;;12.77;7.53;;;7.50;60.40;;;;;;5101492;28;20039;-61
2022/03/03 12:16:18;;;;;;;14.45;7.70;;;7.50;59.60;;;;;;5103009;28;20039;-62
2022/03/03 12:19:03;;;;;;;13.27;7.75;;;7.70;62.40;;;;;;5099875;28;20133;-62
2022/03/03 12:21:36;;;;;;;12.15;7.65;;;7.90;62.60;;;;;;5104098;28;20054;-62
2022/03/03 12:24:14;;;;;;;13.90;7.50;;;7.80;61.90;;;;;;5099797;27;20043;-62
2022/03/03 12:26:55;;;;;;;18.58;7.82;;;7.80;61.60;;;;;;5099941;28;20126;-62
2022/03/03 12:29:39;;;;;;;15.75;8.38;;;7.60;59.90;;;;;;5098473;28;20065;-62
2022/03/03 12:32:31;;;;;;;15.73;7.15;;;7.60;60.00;;;;;;5106151;27;20462;-64
2022/03/03 12:35:06;;;;;;;14.05;8.32;;;7.70;62.20;;;;;;5101905;28;20035;-63
2022/03/03 12:37:33;;;;;;;10.15;6.55;;;7.70;65.30;;;;;;5091238;28;20031;-64
2022/03/03 12:40:02;;;;;;;11.43;7.18;;;7.60;63.60;;;;;;5104773;28;20038;-63
2022/03/03 12:42:32;;;;;;;12.90;6.78;;;7.60;63.80;;;;;;5106125;28;20035;-62
2022/03/03 12:45:07;;;;;;;10.68;7.13;;;7.50;63.40;;;;;;5100018;28;20093;-63
2022/03/03 12:47:37;;;;;;;17.02;6.90;;;7.50;65.50;;;;;;5104541;28;20077;-63